Chitral Weather



Chitral's Current Weather

Temprature -10.801o scattered clouds

scattered clouds

Rain: 0 %

Min Temprature-10.801o
Max Temprature-10.801o
Humidity81
Wind Speed0.16 m/h
Sun Rise06:50:45
Sun Set18:02:07
Current Time: 23-Feb-2019 16:02:57
Lat/Lon: 35.85, 71.79




Chitral's Geo Location




Chitral's Weather Forecast

Time Overall Temp Min Temp Max Temp Humidity Wind Speed Rain
23-Feb-2019 (Sat)
17:00:00 light snow -11.410 -11.410 -10.801 81 0.16 m/h 0 %
20:00:00 clear sky -14.530 -14.530 -14.067 80 0.52 m/h 0 %
23:00:00 clear sky -16.190 -16.190 -15.885 82 0.52 m/h 0 %
24-Feb-2019 (Sun)
02:00:00 clear sky -16.670 -16.670 -16.515 74 0.61 m/h 0 %
05:00:00 light snow -16.733 -16.733 -16.733 75 0.61 m/h 0 %
08:00:00 clear sky -16.547 -16.547 -16.547 74 0.51 m/h 0 %
11:00:00 clear sky -12.376 -12.376 -12.376 78 0.06 m/h 0 %
14:00:00 light snow -10.069 -10.069 -10.069 80 0.22 m/h 0 %
17:00:00 light snow -10.704 -10.704 -10.704 80 0.25 m/h 0 %
20:00:00 light snow -12.582 -12.582 -12.582 80 0.31 m/h 0 %
23:00:00 light snow -13.339 -13.339 -13.339 80 0.56 m/h 0 %
25-Feb-2019 (Mon)
02:00:00 light snow -13.920 -13.920 -13.920 84 0.57 m/h 0 %
05:00:00 light snow -14.198 -14.198 -14.198 81 0.21 m/h 0 %
08:00:00 light snow -14.530 -14.530 -14.530 73 0.27 m/h 0 %
11:00:00 clear sky -11.828 -11.828 -11.828 75 0.26 m/h 0 %
14:00:00 light snow -10.552 -10.552 -10.552 79 0.57 m/h 0 %
17:00:00 light snow -11.263 -11.263 -11.263 79 0.21 m/h 0 %
20:00:00 light snow -13.302 -13.302 -13.302 80 0.26 m/h 0 %
23:00:00 light snow -14.033 -14.033 -14.033 79 0.06 m/h 0 %
26-Feb-2019 (Tue)
02:00:00 light snow -14.599 -14.599 -14.599 78 0.06 m/h 0 %
05:00:00 light snow -14.828 -14.828 -14.828 79 0.16 m/h 0 %
08:00:00 light snow -14.343 -14.343 -14.343 76 0.07 m/h 0 %
11:00:00 light snow -11.683 -11.683 -11.683 82 0.37 m/h 0 %
14:00:00 light snow -10.629 -10.629 -10.629 79 0.51 m/h 0 %
17:00:00 light snow -11.311 -11.311 -11.311 79 0.46 m/h 0 %
20:00:00 light snow -13.964 -13.964 -13.964 79 0.07 m/h 0 %
23:00:00 few clouds -16.802 -16.802 -16.802 68 0.22 m/h 0 %
27-Feb-2019 (Wed)
02:00:00 few clouds -18.769 -18.769 -18.769 73 0.41 m/h 0 %
05:00:00 clear sky -19.606 -19.606 -19.606 71 0.5 m/h 0 %
08:00:00 clear sky -19.835 -19.835 -19.835 72 0.42 m/h 0 %
11:00:00 clear sky -14.805 -14.805 -14.805 79 0.61 m/h 0 %
14:00:00 clear sky -11.989 -11.989 -11.989 80 0.35 m/h 0 %
17:00:00 clear sky -12.877 -12.877 -12.877 77 0.31 m/h 0 %
20:00:00 light snow -15.308 -15.308 -15.308 83 0.17 m/h 0 %
23:00:00 light snow -15.109 -15.109 -15.109 71 0.17 m/h 0 %
28-Feb-2019 (Thu)
02:00:00 light snow -15.509 -15.509 -15.509 73 0.26 m/h 0 %
05:00:00 light snow -16.537 -16.537 -16.537 74 0.21 m/h 0 %
08:00:00 light snow -16.635 -16.635 -16.635 74 0.26 m/h 0 %
11:00:00 light snow -12.903 -12.903 -12.903 78 0.26 m/h 0 %
14:00:00 light snow -10.996 -10.996 -10.996 82 0.42 m/h 0 %

Famous Cities (60)